Change the Weather History Date:

Thursday, November 7, 2013

  Actual Average Record
Temperature  
Mean Temperature 38 °F -  
Max Temperature 39 °F 49 °F 59 °F (2008)
Min Temperature 37 °F 38 °F 21 °F (2002)
Degree Days  
Heating Degree Days 27    
Moisture  
Dew Point 30 °F    
Average Humidity 71    
Maximum Humidity 81    
Minimum Humidity 59    
Precipitation  
Precipitation 0.00 in - - ()
Sea Level Pressure  
Sea Level Pressure 30.04 in    
Wind  
Wind Speed 15 mph (WNW)    
Max Wind Speed 22 mph    
Max Gust Speed 30 mph    
Visibility 10 miles    
Events Rain , Snow    
Averages and records for this station are not official NWS values.
T = Trace of Precipitation, MM = Missing Value Source: NWS Daily Summary

Daily Weather History Graph

Daily Weather History Graph

Search for Another Location

Airport or City:

Trip Planner

Search our weather history database for the weather conditions in past years. The results will help you decide how hot, cold, wet, or windy it might be!

Date:

Astronomy

Nov. 07, 2013 Rise Set
Actual Time 7:28 AM EST 5:20 PM EST
Civil Twilight 6:57 AM EST 5:51 PM EST
Nautical Twilight 6:22 AM EST 6:26 PM EST
Astronomical Twilight 5:47 AM EST 7:01 PM EST
Moon 11:39 AM EST (11/7) 9:29 PM EST (11/7)
Length of Visible Light 10h 53m
Length of Day
9h 51m
Waxing Crescent, 22% of the Moon is Illuminated
Nov 7
Waxing Crescent
Nov 10
First Quarter
Nov 17
Full
Nov 25
Last Quarter
Dec 2
New

Hourly Weather History & Observations

Time (EST) Temp. Windchill Dew Point Humidity Pressure Visibility Wind Dir Wind Speed Gust Speed Precip Events Conditions
12:14 AM 38.8 °F 30.4 °F 29.5 °F 69% 30.00 in 10.0 mi WNW 15.0 mph 23.0 mph N/A   Overcast
12:35 AM 38.8 °F 30.4 °F 29.5 °F 69% 30.00 in 10.0 mi WNW 15.0 mph 21.9 mph N/A   Overcast
12:54 AM 38.8 °F 30.8 °F 30.0 °F 71% 30.00 in 10.0 mi WNW 13.8 mph 19.6 mph N/A   Overcast
1:14 AM 38.7 °F 30.1 °F 30.9 °F 74% 30.00 in 10.0 mi NW 15.0 mph 24.2 mph N/A   Overcast
1:35 AM 38.7 °F 30.9 °F 30.6 °F 73% 30.00 in 10.0 mi WNW 12.7 mph 20.7 mph N/A   Overcast
1:54 AM 38.3 °F 28.4 °F 30.6 °F 74% 30.01 in 10.0 mi WNW 19.6 mph 24.2 mph N/A   Overcast
2:15 AM 38.3 °F 30.5 °F 30.6 °F 74% 30.01 in 10.0 mi WNW 12.7 mph 19.6 mph N/A   Overcast
2:34 AM 38.5 °F 30.3 °F 30.6 °F 73% 30.02 in 10.0 mi WNW 13.8 mph 25.3 mph N/A   Overcast
2:54 AM 38.5 °F 29.9 °F 29.7 °F 71% 30.01 in 10.0 mi WNW 15.0 mph 20.7 mph N/A   Overcast
3:15 AM 38.3 °F 30.9 °F 29.8 °F 72% 30.01 in 10.0 mi WNW 11.5 mph 20.7 mph N/A   Overcast
3:34 AM 38.3 °F 29.0 °F 29.1 °F 70% 30.01 in 10.0 mi WNW 17.3 mph 23.0 mph N/A   Overcast
3:54 AM 37.9 °F 28.9 °F 30.4 °F 74% 30.01 in 10.0 mi WNW 16.1 mph 24.2 mph N/A   Overcast
4:15 AM 38.1 °F 29.5 °F 30.2 °F 73% 30.01 in 10.0 mi WNW 15.0 mph 21.9 mph N/A   Overcast
4:34 AM 38.3 °F 29.7 °F 30.4 °F 73% 30.02 in 10.0 mi WNW 15.0 mph 21.9 mph N/A   Overcast
4:54 AM 38.1 °F 28.8 °F 29.7 °F 72% 30.02 in 10.0 mi WNW 17.3 mph 21.9 mph N/A   Overcast
5:14 AM 38.3 °F 30.5 °F 30.0 °F 72% 30.02 in 10.0 mi WNW 12.7 mph 20.7 mph N/A   Overcast
5:34 AM 38.3 °F 29.0 °F 29.5 °F 71% 30.02 in 10.0 mi WNW 17.3 mph 20.7 mph N/A   Overcast
5:55 AM 38.5 °F 29.9 °F 30.0 °F 72% 30.02 in 10.0 mi WNW 15.0 mph 20.7 mph N/A   Overcast
6:14 AM 38.3 °F 29.0 °F 29.8 °F 72% 30.02 in 10.0 mi WNW 17.3 mph 21.9 mph N/A   Overcast
6:34 AM 38.5 °F 30.3 °F 30.0 °F 72% 30.03 in 10.0 mi WNW 13.8 mph 20.7 mph N/A   Overcast
6:55 AM 38.3 °F 29.7 °F 29.5 °F 71% 30.03 in 10.0 mi WNW 15.0 mph 23.0 mph N/A   Overcast
7:14 AM 38.3 °F 29.3 °F 29.8 °F 72% 30.03 in 10.0 mi WNW 16.1 mph 20.7 mph N/A   Overcast
7:34 AM 38.7 °F 30.5 °F 29.8 °F 71% 30.03 in 10.0 mi WNW 13.8 mph 19.6 mph N/A   Overcast
7:55 AM 38.5 °F 29.6 °F 29.7 °F 71% 30.04 in 10.0 mi WNW 16.1 mph 21.9 mph N/A   Overcast
8:14 AM 38.5 °F 30.3 °F 29.1 °F 69% 30.04 in 10.0 mi WNW 13.8 mph 18.4 mph N/A   Overcast
8:34 AM 38.7 °F 29.8 °F 29.5 °F 70% 30.05 in 10.0 mi West 16.1 mph 24.2 mph N/A   Overcast
8:55 AM 38.8 °F 32.6 °F 30.0 °F 71% 30.05 in 10.0 mi WNW 9.2 mph - N/A   Overcast
9:14 AM 39.0 °F 31.0 °F 29.1 °F 68% 30.05 in 10.0 mi WNW 13.8 mph 23.0 mph N/A   Overcast
9:34 AM 38.7 °F 31.8 °F 30.0 °F 71% 30.06 in 10.0 mi WNW 10.4 mph 19.6 mph N/A   Overcast
9:55 AM 38.8 °F 31.2 °F 30.0 °F 71% 30.06 in 10.0 mi WNW 12.7 mph 21.9 mph N/A   Overcast
10:14 AM 39.2 °F 30.8 °F 29.7 °F 69% 30.06 in 10.0 mi WNW 15.0 mph - N/A   Overcast
10:35 AM 39.2 °F 32.0 °F 28.9 °F 67% 30.06 in 10.0 mi WNW 11.5 mph 18.4 mph N/A   Overcast
10:54 AM 39.4 °F 31.1 °F 29.3 °F 67% 30.06 in 10.0 mi WNW 15.0 mph 21.9 mph N/A   Overcast
11:14 AM 39.6 °F 32.5 °F 29.1 °F 66% 30.06 in 10.0 mi WNW 11.5 mph 21.9 mph N/A   Overcast
11:35 AM 39.4 °F 31.1 °F 29.8 °F 69% 30.06 in 10.0 mi WNW 15.0 mph 21.9 mph N/A   Overcast
11:54 AM 39.7 °F 32.3 °F 28.9 °F 65% 30.06 in 10.0 mi WNW 12.7 mph 25.3 mph N/A   Overcast
12:14 PM 39.6 °F 30.6 °F 29.1 °F 66% 30.06 in 10.0 mi West 17.3 mph 25.3 mph N/A   Overcast
12:35 PM 39.2 °F 29.8 °F 29.3 °F 68% 30.05 in 10.0 mi WNW 18.4 mph 24.2 mph N/A   Overcast
12:54 PM 38.7 °F 29.1 °F 29.5 °F 70% 30.05 in 10.0 mi WNW 18.4 mph 24.2 mph N/A   Overcast
1:14 PM 38.8 °F 30.4 °F 28.9 °F 68% 30.05 in 10.0 mi WNW 15.0 mph 20.7 mph N/A   Overcast
1:35 PM 39.2 °F 31.2 °F 29.1 °F 67% 30.04 in 10.0 mi WNW 13.8 mph 19.6 mph N/A   Overcast
1:54 PM 39.0 °F 31.0 °F 28.9 °F 67% 30.05 in 10.0 mi WNW 13.8 mph 19.6 mph N/A   Overcast
2:14 PM 37.4 °F 28.9 °F 30.4 °F 76% 30.05 in 7.0 mi WSW 13.8 mph 18.4 mph N/A Snow Light Snow
2:35 PM 37.6 °F 27.4 °F 31.8 °F 80% 30.05 in 7.0 mi WNW 19.6 mph - N/A   Overcast
2:54 PM 37.2 °F 28.7 °F 31.6 °F 80% 30.04 in 7.0 mi West 13.8 mph 18.4 mph N/A Snow Light Snow
3:14 PM 37.4 °F 28.9 °F 30.0 °F 75% 30.04 in 7.0 mi West 13.8 mph 26.5 mph N/A Snow Light Snow
3:34 PM 38.7 °F 29.1 °F 29.1 °F 69% 30.04 in 10.0 mi WNW 18.4 mph 24.2 mph N/A   Overcast
3:54 PM 39.0 °F 30.3 °F 28.9 °F 67% 30.04 in 10.0 mi WNW 16.1 mph 20.7 mph N/A   Overcast
4:15 PM 39.2 °F 29.8 °F 25.9 °F 59% 30.04 in 10.0 mi West 18.4 mph 24.2 mph N/A   Mostly Cloudy
4:34 PM 39.2 °F 30.2 °F 28.9 °F 67% 30.04 in 10.0 mi WNW 17.3 mph 26.5 mph N/A   Overcast
4:54 PM 38.3 °F 28.7 °F 29.3 °F 70% 30.05 in 10.0 mi WNW 18.4 mph 26.5 mph N/A   Unknown
5:15 PM 37.8 °F 29.4 °F 30.2 °F 74% 30.05 in 7.0 mi WNW 13.8 mph 24.2 mph N/A   Overcast
5:34 PM 38.3 °F 28.7 °F 28.0 °F 67% 30.05 in 10.0 mi NW 18.4 mph 23.0 mph N/A   Overcast
5:54 PM 39.2 °F 30.2 °F 30.0 °F 70% 30.05 in 10.0 mi WNW 17.3 mph 25.3 mph N/A   Overcast
6:15 PM 38.7 °F 29.5 °F 29.5 °F 70% 30.05 in 10.0 mi WNW 17.3 mph 24.2 mph N/A   Overcast
6:34 PM 38.8 °F 28.5 °F 29.7 °F 70% 30.05 in 10.0 mi WNW 21.9 mph 26.5 mph N/A   Overcast
6:54 PM 39.0 °F 29.9 °F 30.0 °F 70% 30.06 in 10.0 mi NW 17.3 mph 27.6 mph N/A   Overcast
7:15 PM 38.5 °F 28.9 °F 31.1 °F 75% 30.07 in 10.0 mi NW 18.4 mph 25.3 mph N/A   Overcast
7:34 PM 37.9 °F 28.2 °F 31.5 °F 77% 30.07 in 10.0 mi NW 18.4 mph 27.6 mph N/A   Overcast
7:54 PM 37.6 °F 28.4 °F 32.2 °F 81% 30.07 in 7.0 mi NW 16.1 mph 26.5 mph N/A Rain Light Rain
8:15 PM 37.8 °F 28.3 °F 31.8 °F 79% 30.07 in 10.0 mi NW 17.3 mph 29.9 mph N/A   Overcast
8:34 PM 37.6 °F 28.4 °F 31.6 °F 79% 30.07 in 10.0 mi NW 16.1 mph 25.3 mph N/A   Overcast
8:55 PM 38.1 °F 29.5 °F 30.6 °F 74% 30.07 in 10.0 mi NW 15.0 mph 27.6 mph N/A   Overcast
9:14 PM 38.3 °F 28.1 °F 30.2 °F 73% 30.07 in 10.0 mi NW 20.7 mph 26.5 mph N/A   Overcast
9:34 PM 38.3 °F 28.7 °F 30.4 °F 73% 30.07 in 10.0 mi NW 18.4 mph 28.8 mph N/A   Overcast
9:55 PM 38.3 °F 28.7 °F 30.0 °F 72% 30.07 in 10.0 mi NW 18.4 mph 26.5 mph N/A   Overcast
10:14 PM 38.3 °F 28.7 °F 29.5 °F 71% 30.07 in 10.0 mi NW 18.4 mph 24.2 mph N/A   Overcast
10:35 PM 38.3 °F 29.0 °F 30.9 °F 75% 30.07 in 10.0 mi NW 17.3 mph 23.0 mph N/A   Overcast
10:54 PM 37.9 °F 28.2 °F 29.8 °F 73% 30.08 in 10.0 mi NW 18.4 mph 26.5 mph N/A   Overcast
11:14 PM 37.9 °F 29.2 °F 30.4 °F 74% 30.08 in 10.0 mi NW 15.0 mph 21.9 mph N/A   Overcast
11:35 PM 37.9 °F 28.9 °F 30.7 °F 75% 30.08 in 10.0 mi NW 16.1 mph 21.9 mph N/A   Overcast
11:54 PM 38.3 °F 30.5 °F 30.2 °F 73% 30.08 in 10.0 mi NW 12.7 mph 26.5 mph N/A   Overcast